Lake Ann, Michigan
Current Conditions -  °F | °C
As of 1:53 AM on Sunday 26 Oct 2014 (Local Time) from KTVC Reporting Station
Clear Clear  
Wind Chill: 11°   Ceiling: Unl
Heat Index: 11°   Visibility: 10mi
Dew Point:   Wind: 13mph
Humidity: 49%   Direction: 310°NW
Pressure: 29.83"   Gusts: 24mph
Location:  44.72°N, 85.84°W
Report Text: KTVC 260553Z 31011G21KT 10SM CLR 11/01 A2983 RMK AO2 SLP102 T01110006 10122 20106 53004
Loading
Personal Weather Stations






























Interactive Weather Map
Tropical Storm Tracking
New forecast layout! Learn more

10-Day Weather Forecast

Advertisements
Track Severe Weather on mobile